sensor_id;sensor_type;location;lat;lon;timestamp;P1;durP1;ratioP1;P2;durP2;ratioP2
37677;SDS011;23517;50.390;8.616;2023-08-31T00:02:00;11.65;;;2.92;;
37677;SDS011;23517;50.390;8.616;2023-08-31T00:04:27;9.80;;;2.60;;
37677;SDS011;23517;50.390;8.616;2023-08-31T00:06:54;5.30;;;2.63;;
37677;SDS011;23517;50.390;8.616;2023-08-31T00:09:23;4.90;;;3.08;;
37677;SDS011;23517;50.390;8.616;2023-08-31T00:11:50;5.95;;;2.28;;
37677;SDS011;23517;50.390;8.616;2023-08-31T00:14:17;6.90;;;2.90;;
37677;SDS011;23517;50.390;8.616;2023-08-31T00:16:44;6.57;;;2.97;;
37677;SDS011;23517;50.390;8.616;2023-08-31T00:19:12;3.67;;;2.67;;
37677;SDS011;23517;50.390;8.616;2023-08-31T00:21:40;4.40;;;2.50;;
37677;SDS011;23517;50.390;8.616;2023-08-31T00:24:08;5.45;;;2.90;;
37677;SDS011;23517;50.390;8.616;2023-08-31T00:26:36;5.28;;;2.60;;
37677;SDS011;23517;50.390;8.616;2023-08-31T00:29:09;6.40;;;2.83;;
37677;SDS011;23517;50.390;8.616;2023-08-31T00:31:43;6.10;;;3.05;;
37677;SDS011;23517;50.390;8.616;2023-08-31T00:34:10;14.13;;;3.20;;
37677;SDS011;23517;50.390;8.616;2023-08-31T00:36:40;10.52;;;2.85;;
37677;SDS011;23517;50.390;8.616;2023-08-31T00:39:07;5.47;;;2.60;;
37677;SDS011;23517;50.390;8.616;2023-08-31T00:41:37;4.00;;;2.60;;
37677;SDS011;23517;50.390;8.616;2023-08-31T00:44:04;10.60;;;3.38;;
37677;SDS011;23517;50.390;8.616;2023-08-31T00:46:31;6.55;;;2.70;;
37677;SDS011;23517;50.390;8.616;2023-08-31T00:48:59;6.97;;;2.90;;
37677;SDS011;23517;50.390;8.616;2023-08-31T00:51:26;10.10;;;3.70;;
37677;SDS011;23517;50.390;8.616;2023-08-31T00:53:52;9.80;;;3.25;;
37677;SDS011;23517;50.390;8.616;2023-08-31T00:56:20;8.20;;;3.15;;
37677;SDS011;23517;50.390;8.616;2023-08-31T00:58:47;4.90;;;2.60;;
37677;SDS011;23517;50.390;8.616;2023-08-31T01:04:10;10.25;;;3.03;;
37677;SDS011;23517;50.390;8.616;2023-08-31T01:07:03;4.93;;;2.67;;
37677;SDS011;23517;50.390;8.616;2023-08-31T01:09:48;6.93;;;2.78;;
37677;SDS011;23517;50.390;8.616;2023-08-31T01:12:22;5.55;;;2.80;;
37677;SDS011;23517;50.390;8.616;2023-08-31T01:15:03;8.73;;;3.17;;
37677;SDS011;23517;50.390;8.616;2023-08-31T01:17:36;5.50;;;3.10;;
37677;SDS011;23517;50.390;8.616;2023-08-31T01:20:14;7.20;;;3.17;;
37677;SDS011;23517;50.390;8.616;2023-08-31T01:22:55;7.28;;;3.13;;
37677;SDS011;23517;50.390;8.616;2023-08-31T01:25:29;6.30;;;2.78;;
37677;SDS011;23517;50.390;8.616;2023-08-31T01:27:59;7.18;;;3.17;;
37677;SDS011;23517;50.390;8.616;2023-08-31T01:30:29;4.50;;;2.70;;
37677;SDS011;23517;50.390;8.616;2023-08-31T01:32:57;4.35;;;2.67;;
37677;SDS011;23517;50.390;8.616;2023-08-31T01:35:24;6.88;;;2.80;;
37677;SDS011;23517;50.390;8.616;2023-08-31T01:37:56;4.78;;;2.90;;
37677;SDS011;23517;50.390;8.616;2023-08-31T01:40:27;6.43;;;2.80;;
37677;SDS011;23517;50.390;8.616;2023-08-31T01:43:07;6.80;;;2.70;;
37677;SDS011;23517;50.390;8.616;2023-08-31T01:45:37;4.80;;;2.67;;
37677;SDS011;23517;50.390;8.616;2023-08-31T01:48:05;8.80;;;3.28;;
37677;SDS011;23517;50.390;8.616;2023-08-31T01:50:32;3.90;;;2.50;;
37677;SDS011;23517;50.390;8.616;2023-08-31T01:52:59;5.20;;;2.60;;
37677;SDS011;23517;50.390;8.616;2023-08-31T01:55:25;10.00;;;3.10;;
37677;SDS011;23517;50.390;8.616;2023-08-31T01:57:52;7.05;;;2.95;;
37677;SDS011;23517;50.390;8.616;2023-08-31T02:00:21;7.53;;;2.75;;
37677;SDS011;23517;50.390;8.616;2023-08-31T02:02:48;6.40;;;3.05;;
37677;SDS011;23517;50.390;8.616;2023-08-31T02:05:15;4.68;;;2.90;;
37677;SDS011;23517;50.390;8.616;2023-08-31T02:07:41;9.07;;;3.30;;
37677;SDS011;23517;50.390;8.616;2023-08-31T02:10:08;6.97;;;3.28;;
37677;SDS011;23517;50.390;8.616;2023-08-31T02:12:35;3.55;;;2.88;;
37677;SDS011;23517;50.390;8.616;2023-08-31T02:15:04;6.47;;;3.97;;
37677;SDS011;23517;50.390;8.616;2023-08-31T02:17:32;7.00;;;3.22;;
37677;SDS011;23517;50.390;8.616;2023-08-31T02:20:00;6.95;;;3.28;;
37677;SDS011;23517;50.390;8.616;2023-08-31T02:22:29;4.05;;;2.92;;
37677;SDS011;23517;50.390;8.616;2023-08-31T02:24:57;6.22;;;2.70;;
37677;SDS011;23517;50.390;8.616;2023-08-31T02:27:24;6.15;;;2.95;;
37677;SDS011;23517;50.390;8.616;2023-08-31T02:29:51;5.45;;;2.72;;
37677;SDS011;23517;50.390;8.616;2023-08-31T02:32:17;7.75;;;3.20;;
37677;SDS011;23517;50.390;8.616;2023-08-31T02:34:44;6.47;;;2.95;;
37677;SDS011;23517;50.390;8.616;2023-08-31T02:37:11;6.28;;;2.97;;
37677;SDS011;23517;50.390;8.616;2023-08-31T02:39:37;8.82;;;3.13;;
37677;SDS011;23517;50.390;8.616;2023-08-31T02:42:04;6.50;;;2.80;;
37677;SDS011;23517;50.390;8.616;2023-08-31T02:44:31;5.10;;;3.17;;
37677;SDS011;23517;50.390;8.616;2023-08-31T02:46:58;6.18;;;3.53;;
37677;SDS011;23517;50.390;8.616;2023-08-31T02:49:25;7.75;;;2.80;;
37677;SDS011;23517;50.390;8.616;2023-08-31T02:51:51;7.20;;;3.17;;
37677;SDS011;23517;50.390;8.616;2023-08-31T02:54:18;5.80;;;3.30;;
37677;SDS011;23517;50.390;8.616;2023-08-31T02:56:45;5.40;;;2.88;;
37677;SDS011;23517;50.390;8.616;2023-08-31T02:59:12;4.93;;;3.10;;
37677;SDS011;23517;50.390;8.616;2023-08-31T03:01:39;8.10;;;2.85;;
37677;SDS011;23517;50.390;8.616;2023-08-31T03:04:06;8.48;;;3.45;;
37677;SDS011;23517;50.390;8.616;2023-08-31T03:06:32;8.43;;;3.10;;
37677;SDS011;23517;50.390;8.616;2023-08-31T03:08:59;7.18;;;3.28;;
37677;SDS011;23517;50.390;8.616;2023-08-31T03:11:28;6.22;;;3.17;;
37677;SDS011;23517;50.390;8.616;2023-08-31T03:13:54;6.15;;;3.22;;
37677;SDS011;23517;50.390;8.616;2023-08-31T03:16:21;4.32;;;3.10;;
37677;SDS011;23517;50.390;8.616;2023-08-31T03:18:48;6.43;;;3.30;;
37677;SDS011;23517;50.390;8.616;2023-08-31T03:21:14;6.82;;;3.35;;
37677;SDS011;23517;50.390;8.616;2023-08-31T03:23:41;5.57;;;3.15;;
37677;SDS011;23517;50.390;8.616;2023-08-31T03:26:08;7.05;;;3.28;;
37677;SDS011;23517;50.390;8.616;2023-08-31T03:28:36;6.82;;;3.35;;
37677;SDS011;23517;50.390;8.616;2023-08-31T03:31:04;7.35;;;3.40;;
37677;SDS011;23517;50.390;8.616;2023-08-31T03:33:31;6.75;;;3.30;;
37677;SDS011;23517;50.390;8.616;2023-08-31T03:36:00;5.43;;;3.40;;
37677;SDS011;23517;50.390;8.616;2023-08-31T03:38:28;8.88;;;3.75;;
37677;SDS011;23517;50.390;8.616;2023-08-31T03:40:58;5.05;;;3.60;;
37677;SDS011;23517;50.390;8.616;2023-08-31T03:43:24;7.47;;;3.58;;
37677;SDS011;23517;50.390;8.616;2023-08-31T03:45:55;7.47;;;3.42;;
37677;SDS011;23517;50.390;8.616;2023-08-31T03:48:25;8.15;;;3.47;;
37677;SDS011;23517;50.390;8.616;2023-08-31T03:50:52;7.85;;;3.75;;
37677;SDS011;23517;50.390;8.616;2023-08-31T03:53:20;6.60;;;3.47;;
37677;SDS011;23517;50.390;8.616;2023-08-31T03:55:46;3.88;;;3.47;;
37677;SDS011;23517;50.390;8.616;2023-08-31T03:58:13;4.75;;;3.65;;
37677;SDS011;23517;50.390;8.616;2023-08-31T04:00:40;9.25;;;4.43;;
37677;SDS011;23517;50.390;8.616;2023-08-31T04:03:08;10.45;;;3.80;;
37677;SDS011;23517;50.390;8.616;2023-08-31T04:05:36;4.50;;;3.50;;
37677;SDS011;23517;50.390;8.616;2023-08-31T04:08:03;9.50;;;3.95;;
37677;SDS011;23517;50.390;8.616;2023-08-31T04:10:30;10.38;;;3.53;;
37677;SDS011;23517;50.390;8.616;2023-08-31T04:12:58;7.20;;;3.85;;
37677;SDS011;23517;50.390;8.616;2023-08-31T04:15:25;8.60;;;3.65;;
37677;SDS011;23517;50.390;8.616;2023-08-31T04:17:51;7.78;;;3.63;;
37677;SDS011;23517;50.390;8.616;2023-08-31T04:20:18;6.30;;;3.75;;
37677;SDS011;23517;50.390;8.616;2023-08-31T04:22:45;6.85;;;3.78;;
37677;SDS011;23517;50.390;8.616;2023-08-31T04:25:12;7.63;;;3.90;;
37677;SDS011;23517;50.390;8.616;2023-08-31T04:27:38;5.32;;;3.38;;
37677;SDS011;23517;50.390;8.616;2023-08-31T04:30:06;6.07;;;3.63;;
37677;SDS011;23517;50.390;8.616;2023-08-31T04:32:34;5.35;;;3.25;;
37677;SDS011;23517;50.390;8.616;2023-08-31T04:35:02;8.20;;;3.38;;
37677;SDS011;23517;50.390;8.616;2023-08-31T04:37:31;8.77;;;3.60;;
37677;SDS011;23517;50.390;8.616;2023-08-31T04:39:59;7.20;;;3.30;;
37677;SDS011;23517;50.390;8.616;2023-08-31T04:42:26;7.50;;;3.67;;
37677;SDS011;23517;50.390;8.616;2023-08-31T04:44:52;12.23;;;4.05;;
37677;SDS011;23517;50.390;8.616;2023-08-31T04:47:19;5.20;;;3.30;;
37677;SDS011;23517;50.390;8.616;2023-08-31T04:49:46;9.70;;;3.28;;
37677;SDS011;23517;50.390;8.616;2023-08-31T04:52:13;5.47;;;3.60;;
37677;SDS011;23517;50.390;8.616;2023-08-31T04:54:45;9.73;;;3.58;;
37677;SDS011;23517;50.390;8.616;2023-08-31T04:57:12;8.10;;;3.80;;
37677;SDS011;23517;50.390;8.616;2023-08-31T04:59:39;6.15;;;3.47;;
37677;SDS011;23517;50.390;8.616;2023-08-31T05:02:06;5.50;;;3.60;;
37677;SDS011;23517;50.390;8.616;2023-08-31T05:04:32;7.82;;;3.83;;
37677;SDS011;23517;50.390;8.616;2023-08-31T05:06:59;6.78;;;3.38;;
37677;SDS011;23517;50.390;8.616;2023-08-31T05:09:25;6.93;;;3.80;;
37677;SDS011;23517;50.390;8.616;2023-08-31T05:11:52;7.85;;;3.45;;
37677;SDS011;23517;50.390;8.616;2023-08-31T05:14:19;7.53;;;3.20;;
37677;SDS011;23517;50.390;8.616;2023-08-31T05:16:46;6.80;;;3.50;;
37677;SDS011;23517;50.390;8.616;2023-08-31T05:19:13;4.10;;;3.70;;
37677;SDS011;23517;50.390;8.616;2023-08-31T05:21:40;7.07;;;3.17;;
37677;SDS011;23517;50.390;8.616;2023-08-31T05:24:07;5.88;;;3.67;;
37677;SDS011;23517;50.390;8.616;2023-08-31T05:26:33;3.85;;;2.90;;
37677;SDS011;23517;50.390;8.616;2023-08-31T05:29:00;6.00;;;3.20;;
37677;SDS011;23517;50.390;8.616;2023-08-31T05:31:27;5.10;;;3.17;;
37677;SDS011;23517;50.390;8.616;2023-08-31T05:33:53;9.90;;;3.60;;
37677;SDS011;23517;50.390;8.616;2023-08-31T05:36:20;7.13;;;3.45;;
37677;SDS011;23517;50.390;8.616;2023-08-31T05:38:47;5.97;;;3.38;;
37677;SDS011;23517;50.390;8.616;2023-08-31T05:41:13;10.70;;;3.20;;
37677;SDS011;23517;50.390;8.616;2023-08-31T05:43:40;7.13;;;3.15;;
37677;SDS011;23517;50.390;8.616;2023-08-31T05:46:07;6.65;;;3.20;;
37677;SDS011;23517;50.390;8.616;2023-08-31T05:48:35;7.55;;;3.25;;
37677;SDS011;23517;50.390;8.616;2023-08-31T05:51:02;5.60;;;3.05;;
37677;SDS011;23517;50.390;8.616;2023-08-31T05:53:30;11.85;;;3.10;;
37677;SDS011;23517;50.390;8.616;2023-08-31T05:55:57;6.00;;;3.10;;
37677;SDS011;23517;50.390;8.616;2023-08-31T05:58:33;6.90;;;3.00;;
37677;SDS011;23517;50.390;8.616;2023-08-31T06:01:01;4.72;;;2.80;;
37677;SDS011;23517;50.390;8.616;2023-08-31T06:03:29;5.80;;;2.35;;
37677;SDS011;23517;50.390;8.616;2023-08-31T06:05:57;5.03;;;3.17;;
37677;SDS011;23517;50.390;8.616;2023-08-31T06:08:25;5.32;;;3.13;;
37677;SDS011;23517;50.390;8.616;2023-08-31T06:10:52;5.28;;;2.90;;
37677;SDS011;23517;50.390;8.616;2023-08-31T06:13:19;6.82;;;3.08;;
37677;SDS011;23517;50.390;8.616;2023-08-31T06:15:49;7.03;;;2.70;;
37677;SDS011;23517;50.390;8.616;2023-08-31T06:18:16;4.93;;;2.22;;
37677;SDS011;23517;50.390;8.616;2023-08-31T06:20:42;4.20;;;2.55;;
37677;SDS011;23517;50.390;8.616;2023-08-31T06:23:09;3.40;;;2.13;;
37677;SDS011;23517;50.390;8.616;2023-08-31T06:25:37;8.88;;;2.67;;
37677;SDS011;23517;50.390;8.616;2023-08-31T06:28:04;6.65;;;2.38;;
37677;SDS011;23517;50.390;8.616;2023-08-31T06:30:34;4.03;;;1.83;;
37677;SDS011;23517;50.390;8.616;2023-08-31T06:33:01;5.15;;;1.80;;
37677;SDS011;23517;50.390;8.616;2023-08-31T06:35:28;3.13;;;1.77;;
37677;SDS011;23517;50.390;8.616;2023-08-31T06:37:55;7.25;;;1.92;;
37677;SDS011;23517;50.390;8.616;2023-08-31T06:40:22;4.18;;;2.00;;
37677;SDS011;23517;50.390;8.616;2023-08-31T06:42:49;4.90;;;1.67;;
37677;SDS011;23517;50.390;8.616;2023-08-31T06:45:15;6.78;;;2.25;;
37677;SDS011;23517;50.390;8.616;2023-08-31T06:47:42;6.05;;;1.92;;
37677;SDS011;23517;50.390;8.616;2023-08-31T06:50:09;3.92;;;1.60;;
37677;SDS011;23517;50.390;8.616;2023-08-31T06:52:35;5.03;;;1.40;;
37677;SDS011;23517;50.390;8.616;2023-08-31T06:55:03;5.45;;;1.80;;
37677;SDS011;23517;50.390;8.616;2023-08-31T06:57:32;4.18;;;1.70;;
37677;SDS011;23517;50.390;8.616;2023-08-31T06:59:59;3.53;;;1.40;;
37677;SDS011;23517;50.390;8.616;2023-08-31T07:02:26;5.07;;;1.80;;
37677;SDS011;23517;50.390;8.616;2023-08-31T07:04:53;3.42;;;1.50;;
37677;SDS011;23517;50.390;8.616;2023-08-31T07:07:20;2.83;;;1.48;;
37677;SDS011;23517;50.390;8.616;2023-08-31T07:09:47;5.00;;;1.35;;
37677;SDS011;23517;50.390;8.616;2023-08-31T07:12:17;5.25;;;1.50;;
37677;SDS011;23517;50.390;8.616;2023-08-31T07:14:44;5.60;;;1.38;;
37677;SDS011;23517;50.390;8.616;2023-08-31T07:17:10;4.05;;;1.40;;
37677;SDS011;23517;50.390;8.616;2023-08-31T07:19:37;5.05;;;1.25;;
37677;SDS011;23517;50.390;8.616;2023-08-31T07:22:04;3.40;;;1.40;;
37677;SDS011;23517;50.390;8.616;2023-08-31T07:24:32;3.38;;;1.45;;
37677;SDS011;23517;50.390;8.616;2023-08-31T07:27:04;2.72;;;1.13;;
37677;SDS011;23517;50.390;8.616;2023-08-31T07:29:31;5.22;;;1.08;;
37677;SDS011;23517;50.390;8.616;2023-08-31T07:31:57;3.33;;;1.20;;
37677;SDS011;23517;50.390;8.616;2023-08-31T07:34:24;3.97;;;1.20;;
37677;SDS011;23517;50.390;8.616;2023-08-31T07:36:51;5.63;;;1.33;;
37677;SDS011;23517;50.390;8.616;2023-08-31T07:39:18;4.82;;;1.33;;
37677;SDS011;23517;50.390;8.616;2023-08-31T07:41:45;4.22;;;1.35;;
37677;SDS011;23517;50.390;8.616;2023-08-31T07:44:11;5.25;;;1.40;;
37677;SDS011;23517;50.390;8.616;2023-08-31T07:46:38;3.13;;;1.10;;
37677;SDS011;23517;50.390;8.616;2023-08-31T07:49:05;3.47;;;1.10;;
37677;SDS011;23517;50.390;8.616;2023-08-31T07:51:32;5.43;;;1.10;;
37677;SDS011;23517;50.390;8.616;2023-08-31T07:53:59;3.83;;;1.05;;
37677;SDS011;23517;50.390;8.616;2023-08-31T07:56:27;3.28;;;1.05;;
37677;SDS011;23517;50.390;8.616;2023-08-31T07:58:53;4.45;;;0.90;;
37677;SDS011;23517;50.390;8.616;2023-08-31T08:01:20;5.50;;;1.13;;
37677;SDS011;23517;50.390;8.616;2023-08-31T08:03:48;4.50;;;1.50;;
37677;SDS011;23517;50.390;8.616;2023-08-31T08:06:14;3.72;;;1.13;;
37677;SDS011;23517;50.390;8.616;2023-08-31T08:08:41;1.90;;;0.82;;
37677;SDS011;23517;50.390;8.616;2023-08-31T08:11:08;2.10;;;1.10;;
37677;SDS011;23517;50.390;8.616;2023-08-31T08:13:35;3.90;;;1.20;;
37677;SDS011;23517;50.390;8.616;2023-08-31T08:16:01;3.90;;;1.00;;
37677;SDS011;23517;50.390;8.616;2023-08-31T08:18:29;3.17;;;1.08;;
37677;SDS011;23517;50.390;8.616;2023-08-31T08:20:57;2.83;;;1.10;;
37677;SDS011;23517;50.390;8.616;2023-08-31T08:23:23;3.70;;;1.48;;
37677;SDS011;23517;50.390;8.616;2023-08-31T08:25:50;5.10;;;1.17;;
37677;SDS011;23517;50.390;8.616;2023-08-31T08:28:17;2.10;;;1.17;;
37677;SDS011;23517;50.390;8.616;2023-08-31T08:30:50;2.63;;;1.00;;
37677;SDS011;23517;50.390;8.616;2023-08-31T08:33:17;3.58;;;1.27;;
37677;SDS011;23517;50.390;8.616;2023-08-31T08:35:43;3.88;;;1.58;;
37677;SDS011;23517;50.390;8.616;2023-08-31T08:38:11;6.63;;;1.10;;
37677;SDS011;23517;50.390;8.616;2023-08-31T08:40:37;2.70;;;1.20;;
37677;SDS011;23517;50.390;8.616;2023-08-31T08:43:07;4.18;;;1.45;;
37677;SDS011;23517;50.390;8.616;2023-08-31T08:45:36;5.03;;;1.10;;
37677;SDS011;23517;50.390;8.616;2023-08-31T08:48:05;3.00;;;1.25;;
37677;SDS011;23517;50.390;8.616;2023-08-31T08:50:34;4.55;;;1.00;;
37677;SDS011;23517;50.390;8.616;2023-08-31T08:53:02;2.22;;;1.10;;
37677;SDS011;23517;50.390;8.616;2023-08-31T08:55:30;2.08;;;1.08;;
37677;SDS011;23517;50.390;8.616;2023-08-31T08:57:58;5.47;;;1.35;;
37677;SDS011;23517;50.390;8.616;2023-08-31T09:00:26;4.30;;;1.40;;
37677;SDS011;23517;50.390;8.616;2023-08-31T09:02:56;4.75;;;1.00;;
37677;SDS011;23517;50.390;8.616;2023-08-31T09:05:24;6.85;;;1.10;;
37677;SDS011;23517;50.390;8.616;2023-08-31T09:08:00;3.75;;;1.00;;
37677;SDS011;23517;50.390;8.616;2023-08-31T09:10:39;3.53;;;1.42;;
37677;SDS011;23517;50.390;8.616;2023-08-31T09:13:10;5.13;;;1.02;;
37677;SDS011;23517;50.390;8.616;2023-08-31T09:15:41;4.43;;;1.35;;
37677;SDS011;23517;50.390;8.616;2023-08-31T09:18:29;5.57;;;1.00;;
37677;SDS011;23517;50.390;8.616;2023-08-31T09:21:00;8.63;;;1.20;;
37677;SDS011;23517;50.390;8.616;2023-08-31T09:23:28;2.38;;;0.73;;
37677;SDS011;23517;50.390;8.616;2023-08-31T09:25:55;5.85;;;1.10;;
37677;SDS011;23517;50.390;8.616;2023-08-31T09:28:23;3.50;;;1.10;;
37677;SDS011;23517;50.390;8.616;2023-08-31T09:30:55;1.92;;;1.10;;
37677;SDS011;23517;50.390;8.616;2023-08-31T09:33:34;4.10;;;1.35;;
37677;SDS011;23517;50.390;8.616;2023-08-31T09:36:03;2.20;;;1.00;;
37677;SDS011;23517;50.390;8.616;2023-08-31T09:38:36;4.53;;;1.15;;
37677;SDS011;23517;50.390;8.616;2023-08-31T09:41:09;4.15;;;1.20;;
37677;SDS011;23517;50.390;8.616;2023-08-31T09:43:36;3.30;;;1.20;;
37677;SDS011;23517;50.390;8.616;2023-08-31T09:46:04;2.65;;;1.00;;
37677;SDS011;23517;50.390;8.616;2023-08-31T09:48:31;4.15;;;1.02;;
37677;SDS011;23517;50.390;8.616;2023-08-31T09:50:58;3.47;;;1.10;;
37677;SDS011;23517;50.390;8.616;2023-08-31T09:53:30;3.55;;;1.13;;
37677;SDS011;23517;50.390;8.616;2023-08-31T09:55:57;3.50;;;1.27;;
37677;SDS011;23517;50.390;8.616;2023-08-31T09:58:25;3.25;;;1.13;;
37677;SDS011;23517;50.390;8.616;2023-08-31T10:00:55;3.67;;;1.15;;
37677;SDS011;23517;50.390;8.616;2023-08-31T10:03:29;6.10;;;1.08;;
37677;SDS011;23517;50.390;8.616;2023-08-31T10:05:57;4.00;;;1.00;;
37677;SDS011;23517;50.390;8.616;2023-08-31T10:08:25;2.20;;;0.90;;
37677;SDS011;23517;50.390;8.616;2023-08-31T10:10:59;3.75;;;1.00;;
37677;SDS011;23517;50.390;8.616;2023-08-31T10:13:31;4.85;;;1.17;;
37677;SDS011;23517;50.390;8.616;2023-08-31T10:16:03;5.15;;;1.08;;
37677;SDS011;23517;50.390;8.616;2023-08-31T10:18:31;2.08;;;1.02;;
37677;SDS011;23517;50.390;8.616;2023-08-31T10:21:01;3.70;;;1.23;;
37677;SDS011;23517;50.390;8.616;2023-08-31T10:23:29;3.78;;;1.23;;
37677;SDS011;23517;50.390;8.616;2023-08-31T10:28:24;2.72;;;1.20;;
37677;SDS011;23517;50.390;8.616;2023-08-31T10:33:31;2.58;;;1.02;;
37677;SDS011;23517;50.390;8.616;2023-08-31T10:36:09;4.13;;;0.95;;
37677;SDS011;23517;50.390;8.616;2023-08-31T10:41:22;4.90;;;1.15;;
37677;SDS011;23517;50.390;8.616;2023-08-31T10:43:54;5.55;;;1.27;;
37677;SDS011;23517;50.390;8.616;2023-08-31T10:51:38;7.63;;;1.30;;
37677;SDS011;23517;50.390;8.616;2023-08-31T10:54:13;5.00;;;1.00;;
37677;SDS011;23517;50.390;8.616;2023-08-31T10:59:45;4.70;;;1.35;;
37677;SDS011;23517;50.390;8.616;2023-08-31T11:02:33;3.78;;;1.30;;
37677;SDS011;23517;50.390;8.616;2023-08-31T11:05:11;2.80;;;0.90;;
37677;SDS011;23517;50.390;8.616;2023-08-31T11:07:44;4.55;;;1.10;;
37677;SDS011;23517;50.390;8.616;2023-08-31T11:10:16;3.17;;;1.15;;
37677;SDS011;23517;50.390;8.616;2023-08-31T11:12:53;5.88;;;1.40;;
37677;SDS011;23517;50.390;8.616;2023-08-31T11:15:21;4.05;;;1.10;;
37677;SDS011;23517;50.390;8.616;2023-08-31T11:17:53;4.65;;;1.20;;
37677;SDS011;23517;50.390;8.616;2023-08-31T11:20:21;4.53;;;1.33;;
37677;SDS011;23517;50.390;8.616;2023-08-31T11:22:50;3.05;;;1.10;;
37677;SDS011;23517;50.390;8.616;2023-08-31T11:25:20;2.70;;;1.20;;
37677;SDS011;23517;50.390;8.616;2023-08-31T11:27:55;2.55;;;1.10;;
37677;SDS011;23517;50.390;8.616;2023-08-31T11:30:29;5.65;;;1.40;;
37677;SDS011;23517;50.390;8.616;2023-08-31T11:33:03;2.55;;;1.00;;
37677;SDS011;23517;50.390;8.616;2023-08-31T11:35:36;2.90;;;1.10;;
37677;SDS011;23517;50.390;8.616;2023-08-31T11:38:06;3.05;;;1.15;;
37677;SDS011;23517;50.390;8.616;2023-08-31T11:40:33;3.70;;;1.20;;
37677;SDS011;23517;50.390;8.616;2023-08-31T11:43:01;5.95;;;1.23;;
37677;SDS011;23517;50.390;8.616;2023-08-31T11:45:30;3.40;;;1.15;;
37677;SDS011;23517;50.390;8.616;2023-08-31T11:47:58;4.63;;;1.20;;
37677;SDS011;23517;50.390;8.616;2023-08-31T11:50:25;2.55;;;1.23;;
37677;SDS011;23517;50.390;8.616;2023-08-31T11:52:53;5.97;;;1.63;;
37677;SDS011;23517;50.390;8.616;2023-08-31T11:55:21;3.80;;;1.02;;
37677;SDS011;23517;50.390;8.616;2023-08-31T11:57:49;2.60;;;1.05;;
37677;SDS011;23517;50.390;8.616;2023-08-31T12:00:18;4.40;;;1.33;;
37677;SDS011;23517;50.390;8.616;2023-08-31T12:02:59;4.78;;;1.30;;
37677;SDS011;23517;50.390;8.616;2023-08-31T12:05:27;4.72;;;1.30;;
37677;SDS011;23517;50.390;8.616;2023-08-31T12:07:55;5.03;;;1.30;;
37677;SDS011;23517;50.390;8.616;2023-08-31T12:10:25;3.55;;;1.25;;
37677;SDS011;23517;50.390;8.616;2023-08-31T12:12:53;3.58;;;1.33;;
37677;SDS011;23517;50.390;8.616;2023-08-31T12:15:21;3.80;;;1.27;;
37677;SDS011;23517;50.390;8.616;2023-08-31T12:17:49;2.60;;;1.20;;
37677;SDS011;23517;50.390;8.616;2023-08-31T12:20:24;4.30;;;1.17;;
37677;SDS011;23517;50.390;8.616;2023-08-31T12:22:54;2.53;;;1.15;;
37677;SDS011;23517;50.390;8.616;2023-08-31T12:25:21;5.00;;;1.30;;
37677;SDS011;23517;50.390;8.616;2023-08-31T12:27:48;2.90;;;1.10;;
37677;SDS011;23517;50.390;8.616;2023-08-31T12:30:16;3.90;;;1.13;;
37677;SDS011;23517;50.390;8.616;2023-08-31T12:32:45;2.63;;;0.98;;
37677;SDS011;23517;50.390;8.616;2023-08-31T12:35:12;2.05;;;1.02;;
37677;SDS011;23517;50.390;8.616;2023-08-31T12:37:40;3.00;;;1.08;;
37677;SDS011;23517;50.390;8.616;2023-08-31T12:40:07;3.75;;;1.10;;
37677;SDS011;23517;50.390;8.616;2023-08-31T12:42:36;3.42;;;1.30;;
37677;SDS011;23517;50.390;8.616;2023-08-31T12:45:02;5.57;;;1.23;;
37677;SDS011;23517;50.390;8.616;2023-08-31T12:47:31;4.60;;;1.30;;
37677;SDS011;23517;50.390;8.616;2023-08-31T12:49:58;3.05;;;0.98;;
37677;SDS011;23517;50.390;8.616;2023-08-31T12:52:25;4.07;;;1.02;;
37677;SDS011;23517;50.390;8.616;2023-08-31T12:54:52;6.28;;;1.42;;
37677;SDS011;23517;50.390;8.616;2023-08-31T12:57:18;2.03;;;0.98;;
37677;SDS011;23517;50.390;8.616;2023-08-31T12:59:45;4.13;;;1.13;;
37677;SDS011;23517;50.390;8.616;2023-08-31T13:02:14;3.03;;;1.15;;
37677;SDS011;23517;50.390;8.616;2023-08-31T13:04:41;4.22;;;1.40;;
37677;SDS011;23517;50.390;8.616;2023-08-31T13:07:07;5.10;;;1.33;;
37677;SDS011;23517;50.390;8.616;2023-08-31T13:09:35;2.55;;;1.20;;
37677;SDS011;23517;50.390;8.616;2023-08-31T13:12:01;7.25;;;1.40;;
37677;SDS011;23517;50.390;8.616;2023-08-31T13:14:29;3.70;;;1.38;;
37677;SDS011;23517;50.390;8.616;2023-08-31T13:16:56;4.93;;;1.30;;
37677;SDS011;23517;50.390;8.616;2023-08-31T13:19:22;3.55;;;1.13;;
37677;SDS011;23517;50.390;8.616;2023-08-31T13:21:49;5.80;;;1.23;;
37677;SDS011;23517;50.390;8.616;2023-08-31T13:24:16;4.18;;;1.35;;
37677;SDS011;23517;50.390;8.616;2023-08-31T13:26:43;3.25;;;1.20;;
37677;SDS011;23517;50.390;8.616;2023-08-31T13:29:13;4.93;;;1.40;;
37677;SDS011;23517;50.390;8.616;2023-08-31T13:31:40;3.30;;;1.05;;
37677;SDS011;23517;50.390;8.616;2023-08-31T13:34:07;4.15;;;1.40;;
37677;SDS011;23517;50.390;8.616;2023-08-31T13:36:34;3.80;;;1.23;;
37677;SDS011;23517;50.390;8.616;2023-08-31T13:39:00;4.60;;;1.40;;
37677;SDS011;23517;50.390;8.616;2023-08-31T13:41:28;3.38;;;1.38;;
37677;SDS011;23517;50.390;8.616;2023-08-31T13:44:01;3.30;;;1.30;;
37677;SDS011;23517;50.390;8.616;2023-08-31T13:46:28;2.47;;;1.13;;
37677;SDS011;23517;50.390;8.616;2023-08-31T13:48:55;2.55;;;1.27;;
37677;SDS011;23517;50.390;8.616;2023-08-31T13:51:21;2.25;;;1.00;;
37677;SDS011;23517;50.390;8.616;2023-08-31T13:53:48;2.67;;;1.10;;
37677;SDS011;23517;50.390;8.616;2023-08-31T13:56:15;4.10;;;1.05;;
37677;SDS011;23517;50.390;8.616;2023-08-31T13:58:41;2.65;;;1.40;;
37677;SDS011;23517;50.390;8.616;2023-08-31T14:01:08;3.17;;;1.00;;
37677;SDS011;23517;50.390;8.616;2023-08-31T14:03:35;3.15;;;1.38;;
37677;SDS011;23517;50.390;8.616;2023-08-31T14:06:02;3.35;;;1.27;;
37677;SDS011;23517;50.390;8.616;2023-08-31T14:08:32;3.45;;;1.23;;
37677;SDS011;23517;50.390;8.616;2023-08-31T14:10:59;3.25;;;1.30;;
37677;SDS011;23517;50.390;8.616;2023-08-31T14:13:25;2.90;;;1.33;;
37677;SDS011;23517;50.390;8.616;2023-08-31T14:15:52;3.03;;;1.20;;
37677;SDS011;23517;50.390;8.616;2023-08-31T14:18:20;2.75;;;1.27;;
37677;SDS011;23517;50.390;8.616;2023-08-31T14:20:47;2.67;;;1.00;;
37677;SDS011;23517;50.390;8.616;2023-08-31T14:23:14;1.95;;;1.20;;
37677;SDS011;23517;50.390;8.616;2023-08-31T14:25:42;2.50;;;1.10;;
37677;SDS011;23517;50.390;8.616;2023-08-31T14:28:08;3.38;;;1.30;;
37677;SDS011;23517;50.390;8.616;2023-08-31T14:30:35;3.20;;;1.10;;
37677;SDS011;23517;50.390;8.616;2023-08-31T14:33:03;4.60;;;1.17;;
37677;SDS011;23517;50.390;8.616;2023-08-31T14:35:31;2.22;;;1.23;;
37677;SDS011;23517;50.390;8.616;2023-08-31T14:37:57;3.45;;;1.30;;
37677;SDS011;23517;50.390;8.616;2023-08-31T14:40:25;2.63;;;1.00;;
37677;SDS011;23517;50.390;8.616;2023-08-31T14:42:51;1.77;;;1.10;;
37677;SDS011;23517;50.390;8.616;2023-08-31T14:45:21;2.53;;;1.25;;
37677;SDS011;23517;50.390;8.616;2023-08-31T14:47:50;3.25;;;1.27;;
37677;SDS011;23517;50.390;8.616;2023-08-31T14:50:17;4.72;;;1.50;;
37677;SDS011;23517;50.390;8.616;2023-08-31T14:52:53;2.72;;;1.33;;
37677;SDS011;23517;50.390;8.616;2023-08-31T14:55:20;8.20;;;1.50;;
37677;SDS011;23517;50.390;8.616;2023-08-31T14:57:47;3.95;;;1.63;;
37677;SDS011;23517;50.390;8.616;2023-08-31T15:00:13;3.10;;;1.45;;
37677;SDS011;23517;50.390;8.616;2023-08-31T15:02:40;3.63;;;1.30;;
37677;SDS011;23517;50.390;8.616;2023-08-31T15:05:07;6.78;;;1.67;;
37677;SDS011;23517;50.390;8.616;2023-08-31T15:07:34;2.05;;;1.15;;
37677;SDS011;23517;50.390;8.616;2023-08-31T15:10:01;2.53;;;1.25;;
37677;SDS011;23517;50.390;8.616;2023-08-31T15:12:28;1.42;;;1.17;;
37677;SDS011;23517;50.390;8.616;2023-08-31T15:14:55;4.90;;;1.25;;